createdAt,value
2022-08-26T00:00:01.365Z,11.35
2022-08-26T00:00:24.290Z,11.15
2022-08-26T00:00:47.885Z,11.52
2022-08-26T00:01:10.657Z,11.50
2022-08-26T00:01:33.970Z,11.10
2022-08-26T00:01:57.779Z,11.32
2022-08-26T00:02:21.240Z,11.32
2022-08-26T00:02:44.789Z,11.32
2022-08-26T00:03:07.846Z,10.85
2022-08-26T00:03:32.149Z,10.95
2022-08-26T00:03:55.208Z,10.90
2022-08-26T00:04:18.244Z,11.70
2022-08-26T00:04:41.889Z,10.98
2022-08-26T00:05:06.025Z,10.73
2022-08-26T00:05:29.049Z,10.77
2022-08-26T00:05:52.069Z,11.48
2022-08-26T00:06:15.035Z,11.23
2022-08-26T00:06:46.130Z,10.80
2022-08-26T00:07:09.308Z,10.85
2022-08-26T00:07:32.161Z,11.00
2022-08-26T00:07:55.133Z,11.95
2022-08-26T00:08:18.449Z,11.27
2022-08-26T00:08:41.235Z,11.43
2022-08-26T00:09:04.909Z,11.30
2022-08-26T00:09:33.335Z,11.35
2022-08-26T00:10:01.984Z,11.88
2022-08-26T00:10:25.854Z,11.55
2022-08-26T00:10:49.083Z,11.15
2022-08-26T00:11:12.868Z,11.68
2022-08-26T00:11:35.684Z,12.23
2022-08-26T00:11:58.464Z,11.82
2022-08-26T00:12:21.850Z,10.73
2022-08-26T00:12:59.350Z,11.20
2022-08-26T00:13:22.218Z,11.38
2022-08-26T00:13:47.988Z,11.35
2022-08-26T00:14:14.077Z,11.48
2022-08-26T00:14:37.076Z,12.07
2022-08-26T00:15:00.790Z,11.15
2022-08-26T00:15:24.388Z,11.75
2022-08-26T00:15:47.288Z,11.50
2022-08-26T00:16:10.350Z,11.93
2022-08-26T00:16:35.179Z,11.10
2022-08-26T00:16:58.746Z,11.10
2022-08-26T00:17:21.688Z,11.18
2022-08-26T00:17:45.118Z,11.48
2022-08-26T00:18:16.821Z,11.02
2022-08-26T00:18:45.359Z,11.40
2022-08-26T00:19:08.215Z,10.98
2022-08-26T00:19:31.494Z,11.02
2022-08-26T00:19:54.393Z,11.10
2022-08-26T00:20:18.753Z,11.68
2022-08-26T00:20:41.833Z,11.30
2022-08-26T00:21:06.467Z,11.82
2022-08-26T00:21:29.683Z,11.20
2022-08-26T00:21:53.298Z,11.52
2022-08-26T00:22:21.459Z,11.50
2022-08-26T00:22:44.672Z,11.77
2022-08-26T00:23:08.330Z,11.88
2022-08-26T00:23:31.342Z,11.52
2022-08-26T00:23:55.038Z,11.30
2022-08-26T00:24:18.339Z,11.45
2022-08-26T00:24:48.082Z,11.20
2022-08-26T00:25:12.226Z,11.73
2022-08-26T00:25:35.496Z,11.77
2022-08-26T00:26:05.998Z,11.63
2022-08-26T00:26:33.838Z,11.23
2022-08-26T00:26:56.604Z,11.63
2022-08-26T00:27:22.101Z,11.63
2022-08-26T00:27:44.902Z,11.48
2022-08-26T00:28:07.866Z,11.27
2022-08-26T00:28:33.996Z,11.35
2022-08-26T00:28:57.251Z,10.68
2022-08-26T00:29:21.249Z,10.95
2022-08-26T00:29:44.522Z,11.18
2022-08-26T00:30:11.610Z,11.20
2022-08-26T00:30:34.612Z,10.98
2022-08-26T00:30:58.790Z,11.05
2022-08-26T00:31:21.667Z,10.95
2022-08-26T00:31:45.591Z,11.23
2022-08-26T00:32:08.897Z,11.13
2022-08-26T00:32:34.600Z,11.20
2022-08-26T00:32:57.720Z,11.38
2022-08-26T00:33:20.794Z,11.50
2022-08-26T00:33:43.772Z,11.07
2022-08-26T00:34:09.641Z,11.07
2022-08-26T00:34:34.462Z,10.75
2022-08-26T00:34:57.360Z,11.30
2022-08-26T00:35:20.332Z,11.05
2022-08-26T00:35:43.833Z,11.20
2022-08-26T00:36:09.534Z,10.70
2022-08-26T00:36:43.276Z,11.63
2022-08-26T00:37:08.990Z,10.75
2022-08-26T00:37:33.505Z,11.30
2022-08-26T00:37:56.451Z,11.23
2022-08-26T00:38:22.956Z,10.95
2022-08-26T00:38:45.974Z,10.82
2022-08-26T00:39:08.878Z,11.02
2022-08-26T00:39:31.824Z,11.07
2022-08-26T00:39:56.910Z,11.50
2022-08-26T00:40:25.484Z,11.63
2022-08-26T00:40:51.906Z,11.55
2022-08-26T00:41:14.864Z,10.90
2022-08-26T00:41:40.054Z,11.85
2022-08-26T00:42:02.930Z,11.48
2022-08-26T00:42:25.779Z,11.48
2022-08-26T00:42:48.944Z,11.95
2022-08-26T00:43:11.909Z,11.40
2022-08-26T00:43:46.058Z,11.15
2022-08-26T00:44:11.293Z,11.18
2022-08-26T00:44:34.181Z,10.85
2022-08-26T00:44:57.514Z,11.88
2022-08-26T00:45:20.459Z,11.60
2022-08-26T00:45:47.304Z,11.32
2022-08-26T00:46:12.422Z,12.00
2022-08-26T00:46:37.200Z,11.57
2022-08-26T00:47:04.388Z,11.00
2022-08-26T00:47:31.261Z,11.45
2022-08-26T00:47:57.018Z,11.07
2022-08-26T00:48:22.630Z,11.80
2022-08-26T00:48:47.102Z,11.07
2022-08-26T00:49:13.422Z,11.50
2022-08-26T00:49:39.794Z,11.27
2022-08-26T00:50:04.003Z,11.40
2022-08-26T00:50:28.698Z,11.45
2022-08-26T00:50:55.893Z,11.88
2022-08-26T00:51:20.104Z,11.48
2022-08-26T00:51:46.620Z,10.95
2022-08-26T00:52:13.085Z,11.00
2022-08-26T00:52:36.142Z,11.40
2022-08-26T00:53:02.207Z,11.35
2022-08-26T00:53:27.837Z,11.52
2022-08-26T00:53:52.709Z,11.70
2022-08-26T00:54:15.684Z,11.25
2022-08-26T00:54:42.393Z,11.30
2022-08-26T00:55:09.445Z,11.32
2022-08-26T00:55:38.018Z,11.35
2022-08-26T00:56:03.341Z,10.90
2022-08-26T00:56:29.714Z,11.45
2022-08-26T00:56:54.247Z,11.38
2022-08-26T00:57:18.213Z,11.25
2022-08-26T00:57:41.083Z,11.02
2022-08-26T00:58:04.119Z,11.18
2022-08-26T00:58:28.360Z,11.02
2022-08-26T00:58:51.074Z,11.18
2022-08-26T00:59:13.954Z,11.60
2022-08-26T00:59:40.359Z,11.68
2022-08-26T01:00:07.249Z,11.30
2022-08-26T01:00:31.770Z,11.75
2022-08-26T01:00:54.710Z,11.27
2022-08-26T01:01:18.209Z,11.00
2022-08-26T01:01:42.539Z,11.52
2022-08-26T01:02:09.104Z,12.05
2022-08-26T01:02:46.938Z,11.00
2022-08-26T01:03:12.741Z,11.35
2022-08-26T01:03:35.610Z,11.00
2022-08-26T01:03:58.369Z,11.70
2022-08-26T01:04:22.651Z,11.68
2022-08-26T01:04:48.058Z,11.57
2022-08-26T01:05:18.281Z,11.90
2022-08-26T01:05:42.483Z,11.55
2022-08-26T01:06:12.638Z,10.80
2022-08-26T01:06:36.304Z,11.20
2022-08-26T01:06:59.265Z,11.50
2022-08-26T01:07:22.534Z,11.90
2022-08-26T01:07:46.419Z,11.07
2022-08-26T01:08:09.350Z,11.80
2022-08-26T01:08:32.209Z,11.98
2022-08-26T01:08:55.900Z,11.55
2022-08-26T01:09:20.349Z,11.05
2022-08-26T01:09:43.332Z,11.20
2022-08-26T01:10:11.422Z,11.13
2022-08-26T01:10:34.228Z,11.48
2022-08-26T01:10:57.150Z,11.20
2022-08-26T01:11:20.108Z,11.75
2022-08-26T01:11:43.062Z,11.63
2022-08-26T01:12:06.673Z,11.32
2022-08-26T01:12:30.558Z,11.68
2022-08-26T01:12:55.719Z,11.45
2022-08-26T01:13:18.612Z,11.73
2022-08-26T01:13:43.207Z,10.88
2022-08-26T01:14:06.053Z,10.98
2022-08-26T01:14:31.868Z,11.30
2022-08-26T01:14:54.803Z,11.73
2022-08-26T01:15:19.327Z,11.98
2022-08-26T01:15:46.382Z,11.57
2022-08-26T01:16:12.062Z,11.10
2022-08-26T01:16:36.011Z,11.43
2022-08-26T01:16:58.872Z,11.63
2022-08-26T01:17:21.814Z,11.40
2022-08-26T01:17:44.618Z,11.60
2022-08-26T01:18:07.919Z,11.40
2022-08-26T01:18:31.683Z,11.30
2022-08-26T01:18:54.988Z,11.18
2022-08-26T01:19:20.891Z,11.00
2022-08-26T01:19:47.028Z,11.82
2022-08-26T01:20:13.202Z,11.73
2022-08-26T01:20:40.389Z,11.00
2022-08-26T01:21:06.316Z,11.65
2022-08-26T01:21:31.598Z,11.73
2022-08-26T01:21:56.887Z,11.50
2022-08-26T01:22:21.517Z,11.10
2022-08-26T01:22:54.784Z,12.00
2022-08-26T01:23:21.646Z,11.70
2022-08-26T01:23:49.333Z,11.57
2022-08-26T01:24:12.373Z,11.15
2022-08-26T01:24:37.079Z,11.43
2022-08-26T01:25:00.315Z,11.30
2022-08-26T01:25:27.439Z,11.32
2022-08-26T01:25:56.389Z,11.45
2022-08-26T01:26:22.055Z,11.05
2022-08-26T01:26:45.645Z,11.60
2022-08-26T01:27:09.904Z,12.20
2022-08-26T01:27:33.616Z,11.70
2022-08-26T01:27:57.966Z,11.10
2022-08-26T01:28:22.893Z,11.60
2022-08-26T01:28:46.285Z,11.95
2022-08-26T01:29:16.855Z,11.60
2022-08-26T01:29:40.911Z,11.35
2022-08-26T01:30:06.536Z,11.45
2022-08-26T01:30:29.549Z,11.40
2022-08-26T01:30:53.350Z,11.70
2022-08-26T01:31:17.687Z,11.57
2022-08-26T01:31:45.650Z,11.38
2022-08-26T01:32:11.150Z,11.75
2022-08-26T01:32:34.363Z,11.43
2022-08-26T01:32:58.193Z,11.52
2022-08-26T01:33:23.758Z,11.48
2022-08-26T01:33:51.415Z,11.15
2022-08-26T01:34:17.034Z,11.25
2022-08-26T01:34:41.049Z,11.85
2022-08-26T01:35:04.199Z,12.05
2022-08-26T01:35:27.653Z,11.73
2022-08-26T01:35:50.784Z,11.43
2022-08-26T01:36:15.270Z,11.88
2022-08-26T01:36:38.883Z,11.77
2022-08-26T01:37:03.104Z,11.80
2022-08-26T01:37:29.024Z,11.70
2022-08-26T01:37:54.688Z,11.57
2022-08-26T01:38:18.519Z,11.30
2022-08-26T01:38:41.526Z,11.82
2022-08-26T01:39:05.821Z,11.70
2022-08-26T01:39:30.444Z,11.57
2022-08-26T01:39:57.335Z,12.20
2022-08-26T01:40:22.317Z,11.82
2022-08-26T01:40:46.304Z,11.55
2022-08-26T01:41:16.108Z,11.98
2022-08-26T01:41:44.135Z,12.27
2022-08-26T01:42:10.411Z,11.73
2022-08-26T01:42:33.578Z,11.40
2022-08-26T01:42:56.969Z,11.63
2022-08-26T01:43:22.387Z,11.45
2022-08-26T01:43:46.434Z,11.82
2022-08-26T01:44:14.932Z,11.88
2022-08-26T01:44:41.667Z,11.70
2022-08-26T01:45:06.068Z,11.80
2022-08-26T01:45:30.662Z,11.43
2022-08-26T01:45:57.391Z,11.95
2022-08-26T01:46:20.523Z,11.80
2022-08-26T01:46:44.004Z,11.75
2022-08-26T01:47:09.655Z,11.73
2022-08-26T01:47:32.615Z,11.90
2022-08-26T01:47:57.546Z,12.07
2022-08-26T01:48:21.844Z,11.75
2022-08-26T01:48:45.253Z,11.98
2022-08-26T01:49:10.084Z,12.30
2022-08-26T01:49:33.009Z,12.00
2022-08-26T01:49:57.649Z,11.55
2022-08-26T01:50:27.735Z,11.55
2022-08-26T01:50:53.094Z,12.05
2022-08-26T01:51:16.154Z,11.95
2022-08-26T01:51:41.345Z,11.95
2022-08-26T01:52:05.243Z,11.73
2022-08-26T01:52:29.695Z,11.60
2022-08-26T01:52:54.776Z,11.90
2022-08-26T01:53:19.143Z,12.38
2022-08-26T01:53:46.100Z,11.65
2022-08-26T01:54:11.847Z,12.15
2022-08-26T01:54:34.950Z,12.57
2022-08-26T01:54:58.005Z,12.10
2022-08-26T01:55:32.179Z,12.60
2022-08-26T01:55:57.654Z,12.45
2022-08-26T01:56:20.584Z,11.98
2022-08-26T01:56:43.554Z,12.30
2022-08-26T01:57:08.118Z,12.20
2022-08-26T01:57:31.089Z,12.10
2022-08-26T01:57:56.259Z,11.85
2022-08-26T01:58:22.295Z,12.63
2022-08-26T01:58:46.854Z,12.30
2022-08-26T01:59:12.137Z,12.15
2022-08-26T01:59:35.333Z,12.00
2022-08-26T02:00:00.387Z,12.05
2022-08-26T02:00:23.759Z,11.77
2022-08-26T02:00:46.820Z,11.80
2022-08-26T02:01:09.871Z,12.23
2022-08-26T02:01:34.375Z,12.45
2022-08-26T02:01:57.174Z,11.77
2022-08-26T02:02:20.023Z,12.07
2022-08-26T02:02:43.449Z,12.13
2022-08-26T02:03:18.855Z,11.80
2022-08-26T02:03:46.649Z,12.30
2022-08-26T02:04:14.507Z,12.27
2022-08-26T02:04:41.203Z,11.55
2022-08-26T02:05:06.794Z,12.30
2022-08-26T02:05:30.049Z,12.45
2022-08-26T02:05:55.314Z,12.15
2022-08-26T02:06:20.094Z,12.45
2022-08-26T02:06:43.030Z,12.30
2022-08-26T02:07:06.995Z,12.25
2022-08-26T02:07:30.611Z,11.82
2022-08-26T02:07:57.622Z,11.85
2022-08-26T02:08:24.794Z,12.23
2022-08-26T02:08:50.462Z,12.32
2022-08-26T02:09:13.879Z,11.68
2022-08-26T02:09:41.156Z,12.18
2022-08-26T02:10:06.304Z,11.90
2022-08-26T02:10:29.455Z,11.85
2022-08-26T02:10:54.811Z,11.73
2022-08-26T02:11:18.397Z,11.80
2022-08-26T02:11:41.545Z,12.60
2022-08-26T02:12:05.023Z,12.07
2022-08-26T02:12:27.856Z,12.32
2022-08-26T02:12:50.957Z,12.00
2022-08-26T02:13:13.836Z,12.40
2022-08-26T02:13:39.913Z,11.70
2022-08-26T02:14:04.915Z,11.60
2022-08-26T02:14:29.951Z,11.82
2022-08-26T02:14:54.593Z,12.45
2022-08-26T02:15:17.480Z,12.20
2022-08-26T02:15:44.523Z,11.82
2022-08-26T02:16:07.948Z,12.32
2022-08-26T02:16:34.442Z,12.60
2022-08-26T02:16:59.859Z,12.05
2022-08-26T02:17:26.148Z,12.52
2022-08-26T02:17:49.422Z,11.98
2022-08-26T02:18:15.762Z,12.05
2022-08-26T02:18:41.500Z,12.57
2022-08-26T02:19:06.126Z,12.48
2022-08-26T02:19:36.066Z,12.75
2022-08-26T02:19:59.221Z,11.85
2022-08-26T02:20:22.287Z,11.90
2022-08-26T02:20:46.466Z,12.07
2022-08-26T02:21:14.576Z,12.35
2022-08-26T02:21:40.081Z,12.05
2022-08-26T02:22:05.579Z,11.98
2022-08-26T02:22:28.772Z,11.65
2022-08-26T02:22:52.403Z,11.88
2022-08-26T02:23:19.291Z,12.75
2022-08-26T02:23:43.306Z,12.68
2022-08-26T02:24:10.668Z,12.10
2022-08-26T02:24:47.592Z,12.23
2022-08-26T02:25:12.860Z,12.10
2022-08-26T02:25:41.823Z,11.73
2022-08-26T02:26:08.723Z,11.80
2022-08-26T02:26:32.283Z,11.73
2022-08-26T02:26:55.249Z,11.48
2022-08-26T02:27:21.732Z,12.50
2022-08-26T02:27:46.019Z,12.00
2022-08-26T02:28:10.765Z,12.18
2022-08-26T02:28:39.098Z,12.07
2022-08-26T02:29:05.159Z,12.25
2022-08-26T02:29:33.660Z,11.93
2022-08-26T02:29:59.180Z,11.50
2022-08-26T02:30:23.239Z,12.18
2022-08-26T02:30:47.575Z,11.80
2022-08-26T02:31:10.818Z,12.18
2022-08-26T02:31:33.713Z,11.68
2022-08-26T02:31:58.044Z,12.00
2022-08-26T02:32:21.517Z,12.00
2022-08-26T02:32:46.944Z,12.23
2022-08-26T02:33:12.874Z,12.23
2022-08-26T02:33:35.722Z,11.65
2022-08-26T02:34:08.205Z,11.95
2022-08-26T02:34:33.644Z,11.45
2022-08-26T02:34:56.675Z,11.70
2022-08-26T02:35:21.079Z,11.35
2022-08-26T02:35:43.984Z,11.82
2022-08-26T02:36:08.217Z,12.38
2022-08-26T02:36:31.229Z,11.68
2022-08-26T02:36:54.023Z,11.50
2022-08-26T02:37:17.731Z,11.55
2022-08-26T02:37:41.840Z,11.82
2022-08-26T02:38:10.271Z,12.20
2022-08-26T02:38:35.720Z,11.82
2022-08-26T02:38:59.370Z,11.57
2022-08-26T02:39:22.539Z,12.00
2022-08-26T02:39:45.739Z,11.90
2022-08-26T02:40:11.563Z,11.52
2022-08-26T02:40:39.410Z,12.00
2022-08-26T02:41:02.969Z,11.40
2022-08-26T02:41:25.834Z,11.45
2022-08-26T02:41:49.109Z,11.75
2022-08-26T02:42:12.729Z,12.45
2022-08-26T02:42:35.729Z,12.23
2022-08-26T02:43:00.043Z,12.55
2022-08-26T02:43:31.329Z,13.35
2022-08-26T02:43:56.053Z,12.07
2022-08-26T02:44:19.428Z,11.88
2022-08-26T02:44:42.332Z,12.18
2022-08-26T02:45:09.719Z,12.20
2022-08-26T02:45:33.057Z,12.15
2022-08-26T02:45:55.853Z,11.98
2022-08-26T02:46:27.810Z,12.10
2022-08-26T02:46:54.120Z,12.65
2022-08-26T02:47:17.331Z,12.68
2022-08-26T02:47:40.461Z,12.70
2022-08-26T02:48:07.341Z,12.50
2022-08-26T02:48:30.939Z,12.98
2022-08-26T02:48:53.715Z,12.50
2022-08-26T02:49:17.053Z,12.40
2022-08-26T02:49:40.347Z,12.43
2022-08-26T02:50:08.250Z,12.18
2022-08-26T02:50:31.133Z,11.98
2022-08-26T02:50:54.086Z,12.15
2022-08-26T02:51:17.111Z,11.88
2022-08-26T02:51:40.576Z,12.40
2022-08-26T02:52:06.293Z,12.75
2022-08-26T02:52:29.220Z,12.80
2022-08-26T02:52:52.783Z,12.90
2022-08-26T02:53:15.793Z,11.80
2022-08-26T02:53:40.075Z,12.35
2022-08-26T02:54:08.728Z,12.57
2022-08-26T02:54:33.231Z,12.35
2022-08-26T02:54:56.528Z,12.50
2022-08-26T02:55:19.425Z,12.00
2022-08-26T02:55:42.494Z,12.10
2022-08-26T02:56:08.079Z,12.13
2022-08-26T02:56:32.849Z,12.32
2022-08-26T02:56:56.555Z,12.38
2022-08-26T02:57:20.944Z,12.10
2022-08-26T02:57:45.238Z,11.98
2022-08-26T02:58:08.562Z,12.45
2022-08-26T02:58:31.917Z,12.70
2022-08-26T02:58:55.268Z,12.35
2022-08-26T02:59:18.338Z,11.85
2022-08-26T02:59:41.512Z,12.20
2022-08-26T03:00:06.835Z,12.35
2022-08-26T03:00:29.750Z,12.45
2022-08-26T03:00:54.065Z,12.43
2022-08-26T03:01:22.247Z,11.93
2022-08-26T03:01:45.447Z,12.05
2022-08-26T03:02:10.847Z,12.20
2022-08-26T03:02:33.893Z,12.52
2022-08-26T03:02:57.484Z,12.70
2022-08-26T03:03:23.607Z,12.57
2022-08-26T03:03:46.957Z,12.35
2022-08-26T03:04:12.627Z,12.10
2022-08-26T03:04:37.017Z,12.07
2022-08-26T03:05:02.522Z,12.43
2022-08-26T03:05:25.857Z,12.18
2022-08-26T03:05:49.041Z,12.43
2022-08-26T03:06:12.116Z,12.23
2022-08-26T03:06:35.080Z,12.38
2022-08-26T03:07:00.081Z,12.18
2022-08-26T03:07:26.277Z,12.73
2022-08-26T03:07:49.369Z,12.65
2022-08-26T03:08:12.266Z,12.30
2022-08-26T03:08:35.088Z,12.70
2022-08-26T03:08:59.744Z,12.30
2022-08-26T03:09:22.630Z,12.52
2022-08-26T03:09:46.214Z,12.80
2022-08-26T03:10:09.829Z,12.48
2022-08-26T03:10:33.273Z,12.27
2022-08-26T03:10:56.158Z,12.55
2022-08-26T03:11:18.977Z,12.85
2022-08-26T03:11:44.614Z,12.48
2022-08-26T03:12:08.078Z,11.98
2022-08-26T03:12:31.038Z,12.05
2022-08-26T03:12:53.969Z,12.57
2022-08-26T03:13:17.408Z,11.85
2022-08-26T03:13:40.376Z,12.52
2022-08-26T03:14:03.892Z,12.43
2022-08-26T03:14:26.966Z,12.18
2022-08-26T03:14:49.836Z,12.43
2022-08-26T03:15:17.996Z,12.10
2022-08-26T03:15:41.896Z,12.25
2022-08-26T03:16:08.518Z,12.60
2022-08-26T03:16:33.227Z,13.07
2022-08-26T03:16:56.362Z,12.57
2022-08-26T03:17:22.006Z,13.48
2022-08-26T03:17:44.887Z,13.32
2022-08-26T03:18:07.767Z,12.68
2022-08-26T03:18:30.607Z,12.75
2022-08-26T03:18:53.990Z,13.15
2022-08-26T03:19:17.690Z,12.73
2022-08-26T03:19:40.704Z,12.75
2022-08-26T03:20:04.524Z,13.02
2022-08-26T03:20:27.379Z,12.88
2022-08-26T03:20:50.509Z,12.85
2022-08-26T03:21:14.674Z,12.82
2022-08-26T03:21:37.994Z,12.45
2022-08-26T03:22:00.942Z,13.13
2022-08-26T03:22:23.884Z,12.30
2022-08-26T03:22:46.881Z,12.82
2022-08-26T03:23:09.874Z,13.18
2022-08-26T03:23:33.337Z,12.82
2022-08-26T03:23:58.809Z,13.40
2022-08-26T03:24:24.537Z,12.73
2022-08-26T03:24:48.049Z,12.60
2022-08-26T03:25:13.204Z,12.85
2022-08-26T03:25:38.186Z,12.75
2022-08-26T03:26:01.888Z,13.35
2022-08-26T03:26:24.889Z,12.95
2022-08-26T03:26:52.069Z,12.48
2022-08-26T03:27:16.248Z,13.10
2022-08-26T03:27:40.685Z,13.52
2022-08-26T03:28:06.135Z,13.13
2022-08-26T03:28:30.946Z,13.02
2022-08-26T03:29:12.255Z,13.15
2022-08-26T03:29:53.820Z,13.15
2022-08-26T03:30:35.205Z,12.65
2022-08-26T03:30:58.480Z,12.90
2022-08-26T03:31:21.642Z,13.82
2022-08-26T03:31:47.571Z,13.73
2022-08-26T03:32:10.667Z,12.65
2022-08-26T03:32:33.608Z,13.20
2022-08-26T03:32:56.838Z,13.13
2022-08-26T03:33:20.572Z,13.10
2022-08-26T03:33:43.537Z,13.85
2022-08-26T03:34:06.492Z,14.32
2022-08-26T03:34:29.453Z,13.95
2022-08-26T03:34:53.020Z,13.15
2022-08-26T03:35:16.374Z,13.93
2022-08-26T03:35:40.907Z,14.05
2022-08-26T03:36:04.232Z,13.20
2022-08-26T03:36:27.144Z,12.30
2022-08-26T03:36:50.469Z,12.52
2022-08-26T03:37:13.711Z,12.30
2022-08-26T03:37:36.552Z,12.45
2022-08-26T03:37:59.657Z,12.95
2022-08-26T03:38:25.522Z,12.73
2022-08-26T03:38:48.922Z,12.82
2022-08-26T03:39:13.885Z,12.57
2022-08-26T03:39:37.080Z,12.38
2022-08-26T03:39:59.999Z,12.98
2022-08-26T03:40:23.338Z,12.65
2022-08-26T03:40:46.284Z,12.80
2022-08-26T03:41:09.074Z,12.73
2022-08-26T03:41:33.343Z,12.65
2022-08-26T03:41:56.223Z,12.20
2022-08-26T03:42:21.444Z,12.30
2022-08-26T03:42:45.355Z,12.77
2022-08-26T03:43:08.751Z,12.43
2022-08-26T03:43:33.088Z,12.73
2022-08-26T03:44:01.058Z,12.65
2022-08-26T03:44:24.689Z,12.60
2022-08-26T03:44:48.576Z,12.43
2022-08-26T03:45:12.209Z,12.52
2022-08-26T03:45:35.752Z,12.10
2022-08-26T03:45:58.675Z,12.63
2022-08-26T03:46:21.571Z,12.32
2022-08-26T03:46:44.503Z,12.43
2022-08-26T03:47:08.114Z,12.50
2022-08-26T03:47:31.775Z,12.88
2022-08-26T03:47:55.164Z,12.25
2022-08-26T03:48:20.808Z,12.00
2022-08-26T03:48:43.674Z,12.18
2022-08-26T03:49:07.953Z,12.50
2022-08-26T03:49:34.325Z,11.90
2022-08-26T03:49:57.979Z,12.40
2022-08-26T03:50:22.846Z,12.60
2022-08-26T03:50:46.005Z,12.90
2022-08-26T03:51:12.879Z,12.52
2022-08-26T03:51:38.904Z,13.10
2022-08-26T03:52:02.043Z,12.85
2022-08-26T03:52:26.644Z,12.60
2022-08-26T03:52:49.993Z,12.65
2022-08-26T03:53:13.435Z,12.82
2022-08-26T03:53:36.614Z,12.68
2022-08-26T03:54:00.873Z,13.07
2022-08-26T03:54:27.289Z,12.75
2022-08-26T03:54:50.784Z,11.98
2022-08-26T03:55:15.097Z,12.18
2022-08-26T03:55:38.069Z,12.95
2022-08-26T03:56:02.794Z,12.60
2022-08-26T03:56:26.114Z,12.43
2022-08-26T03:56:49.213Z,12.48
2022-08-26T03:57:12.089Z,12.55
2022-08-26T03:57:34.981Z,12.38
2022-08-26T03:57:57.980Z,12.50
2022-08-26T03:58:20.898Z,12.40
2022-08-26T03:58:44.756Z,12.57
2022-08-26T03:59:08.797Z,12.50
2022-08-26T03:59:31.653Z,12.30
2022-08-26T03:59:54.549Z,12.80
2022-08-26T04:00:18.385Z,12.82
2022-08-26T04:00:42.027Z,12.40
2022-08-26T04:01:05.038Z,12.18
2022-08-26T04:01:28.061Z,12.77
2022-08-26T04:01:51.069Z,12.70
2022-08-26T04:02:14.059Z,11.90
2022-08-26T04:02:39.220Z,12.32
2022-08-26T04:03:03.499Z,12.43
2022-08-26T04:03:44.854Z,12.30
2022-08-26T04:04:07.868Z,12.82
2022-08-26T04:04:30.654Z,12.68
2022-08-26T04:04:53.628Z,12.07
2022-08-26T04:05:20.204Z,12.48
2022-08-26T04:05:43.175Z,12.82
2022-08-26T04:06:08.394Z,12.48
2022-08-26T04:06:33.455Z,12.60
2022-08-26T04:06:57.514Z,12.75
2022-08-26T04:07:20.394Z,12.32
2022-08-26T04:07:43.369Z,12.02
2022-08-26T04:08:06.378Z,12.70
2022-08-26T04:08:31.871Z,13.15
2022-08-26T04:08:54.913Z,12.85
2022-08-26T04:09:19.439Z,12.57
2022-08-26T04:09:49.015Z,12.27
2022-08-26T04:10:12.729Z,12.70
2022-08-26T04:10:38.555Z,12.50
2022-08-26T04:11:01.986Z,13.25
2022-08-26T04:11:28.866Z,13.32
2022-08-26T04:11:55.120Z,12.48
2022-08-26T04:12:21.328Z,12.68
2022-08-26T04:12:46.963Z,13.57
2022-08-26T04:13:10.925Z,13.57
2022-08-26T04:13:35.307Z,12.82
2022-08-26T04:13:59.634Z,13.00
2022-08-26T04:14:23.939Z,13.40
2022-08-26T04:14:50.150Z,14.13
2022-08-26T04:15:14.654Z,12.60
2022-08-26T04:15:39.434Z,12.85
2022-08-26T04:16:02.524Z,13.48
2022-08-26T04:16:25.416Z,13.70
2022-08-26T04:16:51.090Z,13.75
2022-08-26T04:17:15.799Z,13.02
2022-08-26T04:17:39.828Z,13.48
2022-08-26T04:18:02.839Z,13.80
2022-08-26T04:18:32.646Z,13.70
2022-08-26T04:18:59.840Z,13.02
2022-08-26T04:19:23.053Z,13.32
2022-08-26T04:19:46.013Z,12.95
2022-08-26T04:20:14.037Z,12.85
2022-08-26T04:20:39.654Z,12.82
2022-08-26T04:21:02.591Z,12.98
2022-08-26T04:21:32.596Z,13.23
2022-08-26T04:21:55.557Z,13.32
2022-08-26T04:22:24.934Z,13.15
2022-08-26T04:22:48.090Z,13.18
2022-08-26T04:23:11.611Z,13.07
2022-08-26T04:23:34.541Z,13.45
2022-08-26T04:24:11.922Z,12.60
2022-08-26T04:24:36.439Z,12.90
2022-08-26T04:25:04.529Z,12.68
2022-08-26T04:25:30.066Z,12.80
2022-08-26T04:25:52.889Z,12.63
2022-08-26T04:26:16.740Z,12.70
2022-08-26T04:26:42.724Z,12.80
2022-08-26T04:27:07.159Z,12.95
2022-08-26T04:27:31.737Z,13.00
2022-08-26T04:27:55.102Z,13.43
2022-08-26T04:28:17.918Z,13.13
2022-08-26T04:28:40.923Z,13.65
2022-08-26T04:29:05.428Z,13.82
2022-08-26T04:29:28.971Z,13.70
2022-08-26T04:29:55.342Z,13.55
2022-08-26T04:30:20.205Z,13.13
2022-08-26T04:30:43.972Z,13.40
2022-08-26T04:31:10.034Z,13.20
2022-08-26T04:31:34.049Z,14.02
2022-08-26T04:31:59.658Z,13.52
2022-08-26T04:32:22.471Z,14.13
2022-08-26T04:32:46.011Z,13.63
2022-08-26T04:33:12.630Z,13.40
2022-08-26T04:33:36.415Z,13.40
2022-08-26T04:34:04.795Z,14.52
2022-08-26T04:34:29.107Z,14.73
2022-08-26T04:34:52.159Z,13.90
2022-08-26T04:35:15.096Z,14.07
2022-08-26T04:35:38.805Z,14.57
2022-08-26T04:36:06.411Z,15.40
2022-08-26T04:36:29.446Z,14.55
2022-08-26T04:36:52.879Z,14.90
2022-08-26T04:37:16.588Z,15.10
2022-08-26T04:37:42.678Z,14.90
2022-08-26T04:38:06.084Z,15.45
2022-08-26T04:38:30.594Z,15.38
2022-08-26T04:38:53.513Z,15.50
2022-08-26T04:39:21.909Z,15.77
2022-08-26T04:39:45.923Z,15.75
2022-08-26T04:40:14.309Z,15.50
2022-08-26T04:40:37.343Z,14.93
2022-08-26T04:41:03.593Z,14.80
2022-08-26T04:41:28.464Z,15.25
2022-08-26T04:41:57.999Z,13.63
2022-08-26T04:42:26.137Z,14.02
2022-08-26T04:42:49.551Z,14.00
2022-08-26T04:43:12.397Z,14.15
2022-08-26T04:43:35.894Z,13.98
2022-08-26T04:43:58.934Z,14.10
2022-08-26T04:44:22.246Z,14.82
2022-08-26T04:44:46.658Z,14.43
2022-08-26T04:45:11.887Z,14.32
2022-08-26T04:45:36.462Z,13.65
2022-08-26T04:45:59.958Z,13.77
2022-08-26T04:46:24.604Z,14.52
2022-08-26T04:46:50.630Z,14.30
2022-08-26T04:47:13.728Z,14.10
2022-08-26T04:47:36.601Z,14.52
2022-08-26T04:47:59.572Z,14.13
2022-08-26T04:48:25.139Z,14.55
2022-08-26T04:48:49.256Z,14.32
2022-08-26T04:49:12.376Z,13.98
2022-08-26T04:49:35.921Z,13.80
2022-08-26T04:49:59.251Z,14.27
2022-08-26T04:50:23.621Z,14.18
2022-08-26T04:50:49.445Z,13.27
2022-08-26T04:51:12.742Z,14.75
2022-08-26T04:51:35.817Z,15.07
2022-08-26T04:51:59.732Z,14.30
2022-08-26T04:52:22.603Z,14.00
2022-08-26T04:52:45.656Z,14.20
2022-08-26T04:53:09.255Z,13.82
2022-08-26T04:53:32.539Z,13.73
2022-08-26T04:53:57.661Z,13.55
2022-08-26T04:54:20.877Z,13.70
2022-08-26T04:54:43.886Z,14.25
2022-08-26T04:55:07.829Z,14.50
2022-08-26T04:55:38.688Z,13.43
2022-08-26T04:56:03.878Z,13.68
2022-08-26T04:56:31.458Z,13.90
2022-08-26T04:56:55.259Z,13.25
2022-08-26T04:57:19.447Z,13.43
2022-08-26T04:57:43.273Z,13.82
2022-08-26T04:58:10.306Z,14.18
2022-08-26T04:58:33.688Z,14.05
2022-08-26T04:58:56.874Z,14.23
2022-08-26T04:59:19.832Z,13.70
2022-08-26T04:59:42.698Z,13.63
2022-08-26T05:00:07.493Z,13.57
2022-08-26T05:00:30.503Z,13.57
2022-08-26T05:00:55.253Z,13.90
2022-08-26T05:01:18.994Z,13.13
2022-08-26T05:01:44.231Z,13.07
2022-08-26T05:02:07.254Z,13.25
2022-08-26T05:02:31.612Z,13.38
2022-08-26T05:02:55.757Z,12.88
2022-08-26T05:03:19.286Z,13.32
2022-08-26T05:03:42.414Z,12.65
2022-08-26T05:04:08.117Z,12.93
2022-08-26T05:04:34.614Z,12.13
2022-08-26T05:04:58.800Z,13.50
2022-08-26T05:05:22.312Z,12.52
2022-08-26T05:05:48.228Z,13.13
2022-08-26T05:06:12.407Z,12.55
2022-08-26T05:06:35.569Z,12.43
2022-08-26T05:07:02.267Z,13.25
2022-08-26T05:07:25.833Z,13.50
2022-08-26T05:07:48.748Z,12.45
2022-08-26T05:08:14.987Z,12.63
2022-08-26T05:08:38.384Z,12.57
2022-08-26T05:09:01.269Z,12.63
2022-08-26T05:09:25.588Z,13.00
2022-08-26T05:09:48.477Z,12.32
2022-08-26T05:10:11.582Z,12.48
2022-08-26T05:10:39.948Z,12.55
2022-08-26T05:11:04.157Z,12.93
2022-08-26T05:11:28.624Z,12.73
2022-08-26T05:11:52.238Z,12.82
2022-08-26T05:12:15.374Z,12.60
2022-08-26T05:12:39.382Z,12.73
2022-08-26T05:13:11.203Z,12.35
2022-08-26T05:13:35.579Z,12.10
2022-08-26T05:14:02.109Z,12.70
2022-08-26T05:14:25.464Z,12.48
2022-08-26T05:14:48.536Z,12.00
2022-08-26T05:15:12.089Z,12.15
2022-08-26T05:15:35.970Z,12.93
2022-08-26T05:16:03.236Z,13.05
2022-08-26T05:16:26.337Z,12.93
2022-08-26T05:16:49.426Z,13.25
2022-08-26T05:17:14.900Z,13.50
2022-08-26T05:17:38.410Z,13.07